sensor_id;sensor_type;location;lat;lon;timestamp;P1;durP1;ratioP1;P2;durP2;ratioP2
12042;SDS011;6082;49.306;12.862;2022-12-05T00:02:09;20.47;;;9.03;;
12042;SDS011;6082;49.306;12.862;2022-12-05T00:04:35;18.43;;;8.13;;
12042;SDS011;6082;49.306;12.862;2022-12-05T00:07:02;18.67;;;8.97;;
12042;SDS011;6082;49.306;12.862;2022-12-05T00:09:28;23.50;;;8.63;;
12042;SDS011;6082;49.306;12.862;2022-12-05T00:11:54;22.87;;;9.63;;
12042;SDS011;6082;49.306;12.862;2022-12-05T00:14:20;20.63;;;8.73;;
12042;SDS011;6082;49.306;12.862;2022-12-05T00:16:46;22.13;;;9.40;;
12042;SDS011;6082;49.306;12.862;2022-12-05T00:19:13;17.47;;;8.90;;
12042;SDS011;6082;49.306;12.862;2022-12-05T00:21:40;20.17;;;8.20;;
12042;SDS011;6082;49.306;12.862;2022-12-05T00:24:07;20.23;;;8.10;;
12042;SDS011;6082;49.306;12.862;2022-12-05T00:26:34;16.13;;;8.60;;
12042;SDS011;6082;49.306;12.862;2022-12-05T00:29:00;19.20;;;7.60;;
12042;SDS011;6082;49.306;12.862;2022-12-05T00:31:26;18.57;;;8.07;;
12042;SDS011;6082;49.306;12.862;2022-12-05T00:33:53;18.60;;;8.57;;
12042;SDS011;6082;49.306;12.862;2022-12-05T00:36:20;22.10;;;9.00;;
12042;SDS011;6082;49.306;12.862;2022-12-05T00:38:46;15.47;;;8.10;;
12042;SDS011;6082;49.306;12.862;2022-12-05T00:41:14;17.63;;;8.40;;
12042;SDS011;6082;49.306;12.862;2022-12-05T00:43:40;16.30;;;6.70;;
12042;SDS011;6082;49.306;12.862;2022-12-05T00:46:07;16.73;;;7.67;;
12042;SDS011;6082;49.306;12.862;2022-12-05T00:48:34;16.77;;;7.73;;
12042;SDS011;6082;49.306;12.862;2022-12-05T00:51:11;14.33;;;7.53;;
12042;SDS011;6082;49.306;12.862;2022-12-05T00:53:37;15.17;;;7.27;;
12042;SDS011;6082;49.306;12.862;2022-12-05T00:56:07;18.77;;;7.87;;
12042;SDS011;6082;49.306;12.862;2022-12-05T00:58:34;16.67;;;7.60;;
12042;SDS011;6082;49.306;12.862;2022-12-05T01:03:38;14.13;;;6.57;;
12042;SDS011;6082;49.306;12.862;2022-12-05T01:06:05;13.23;;;7.03;;
12042;SDS011;6082;49.306;12.862;2022-12-05T01:08:31;15.80;;;8.13;;
12042;SDS011;6082;49.306;12.862;2022-12-05T01:10:58;16.13;;;7.67;;
12042;SDS011;6082;49.306;12.862;2022-12-05T01:13:24;13.87;;;7.47;;
12042;SDS011;6082;49.306;12.862;2022-12-05T01:15:51;11.77;;;5.50;;
12042;SDS011;6082;49.306;12.862;2022-12-05T01:18:17;15.90;;;7.43;;
12042;SDS011;6082;49.306;12.862;2022-12-05T01:20:44;15.10;;;7.77;;
12042;SDS011;6082;49.306;12.862;2022-12-05T01:23:10;20.47;;;8.27;;
12042;SDS011;6082;49.306;12.862;2022-12-05T01:25:40;16.20;;;7.97;;
12042;SDS011;6082;49.306;12.862;2022-12-05T01:28:07;11.87;;;6.80;;
12042;SDS011;6082;49.306;12.862;2022-12-05T01:30:36;15.53;;;7.63;;
12042;SDS011;6082;49.306;12.862;2022-12-05T01:33:02;14.67;;;7.23;;
12042;SDS011;6082;49.306;12.862;2022-12-05T01:35:30;14.53;;;6.50;;
12042;SDS011;6082;49.306;12.862;2022-12-05T01:37:56;10.53;;;5.50;;
12042;SDS011;6082;49.306;12.862;2022-12-05T01:40:22;14.83;;;7.13;;
12042;SDS011;6082;49.306;12.862;2022-12-05T01:42:48;18.83;;;7.67;;
12042;SDS011;6082;49.306;12.862;2022-12-05T01:45:16;12.23;;;5.77;;
12042;SDS011;6082;49.306;12.862;2022-12-05T01:47:42;12.50;;;5.87;;
12042;SDS011;6082;49.306;12.862;2022-12-05T01:50:08;14.17;;;7.23;;
12042;SDS011;6082;49.306;12.862;2022-12-05T01:52:35;12.17;;;5.90;;
12042;SDS011;6082;49.306;12.862;2022-12-05T01:55:03;12.93;;;6.30;;
12042;SDS011;6082;49.306;12.862;2022-12-05T01:57:30;14.50;;;6.40;;
12042;SDS011;6082;49.306;12.862;2022-12-05T01:59:58;12.67;;;7.17;;
12042;SDS011;6082;49.306;12.862;2022-12-05T02:02:26;18.43;;;8.13;;
12042;SDS011;6082;49.306;12.862;2022-12-05T02:05:03;19.17;;;7.80;;
12042;SDS011;6082;49.306;12.862;2022-12-05T02:07:30;17.93;;;7.83;;
12042;SDS011;6082;49.306;12.862;2022-12-05T02:09:56;22.13;;;7.87;;
12042;SDS011;6082;49.306;12.862;2022-12-05T02:12:22;15.87;;;7.70;;
12042;SDS011;6082;49.306;12.862;2022-12-05T02:15:05;15.60;;;7.10;;
12042;SDS011;6082;49.306;12.862;2022-12-05T02:17:40;14.07;;;6.93;;
12042;SDS011;6082;49.306;12.862;2022-12-05T02:20:19;15.80;;;7.73;;
12042;SDS011;6082;49.306;12.862;2022-12-05T02:30:21;17.93;;;7.93;;
12042;SDS011;6082;49.306;12.862;2022-12-05T02:33:00;17.53;;;7.03;;
12042;SDS011;6082;49.306;12.862;2022-12-05T02:35:32;14.27;;;7.07;;
12042;SDS011;6082;49.306;12.862;2022-12-05T02:38:14;15.47;;;7.47;;
12042;SDS011;6082;49.306;12.862;2022-12-05T02:46:04;14.00;;;6.57;;
12042;SDS011;6082;49.306;12.862;2022-12-05T02:48:31;17.53;;;7.37;;
12042;SDS011;6082;49.306;12.862;2022-12-05T02:50:58;21.60;;;7.80;;
12042;SDS011;6082;49.306;12.862;2022-12-05T02:53:26;13.67;;;6.50;;
12042;SDS011;6082;49.306;12.862;2022-12-05T02:55:53;13.70;;;5.97;;
12042;SDS011;6082;49.306;12.862;2022-12-05T02:58:24;12.50;;;5.87;;
12042;SDS011;6082;49.306;12.862;2022-12-05T03:00:54;14.67;;;6.77;;
12042;SDS011;6082;49.306;12.862;2022-12-05T03:03:21;18.27;;;7.70;;
12042;SDS011;6082;49.306;12.862;2022-12-05T03:05:54;22.73;;;9.10;;
12042;SDS011;6082;49.306;12.862;2022-12-05T03:08:24;18.90;;;7.67;;
12042;SDS011;6082;49.306;12.862;2022-12-05T03:10:53;15.33;;;7.13;;
12042;SDS011;6082;49.306;12.862;2022-12-05T03:13:21;16.93;;;7.20;;
12042;SDS011;6082;49.306;12.862;2022-12-05T03:15:52;16.07;;;7.97;;
12042;SDS011;6082;49.306;12.862;2022-12-05T03:18:23;18.13;;;7.13;;
12042;SDS011;6082;49.306;12.862;2022-12-05T03:20:52;15.27;;;6.27;;
12042;SDS011;6082;49.306;12.862;2022-12-05T03:23:25;12.33;;;6.17;;
12042;SDS011;6082;49.306;12.862;2022-12-05T03:28:31;13.30;;;7.53;;
12042;SDS011;6082;49.306;12.862;2022-12-05T03:31:01;13.10;;;6.97;;
12042;SDS011;6082;49.306;12.862;2022-12-05T03:33:31;14.53;;;8.20;;
12042;SDS011;6082;49.306;12.862;2022-12-05T03:36:22;13.07;;;6.77;;
12042;SDS011;6082;49.306;12.862;2022-12-05T03:38:49;15.10;;;6.67;;
12042;SDS011;6082;49.306;12.862;2022-12-05T03:45:03;18.83;;;7.57;;
12042;SDS011;6082;49.306;12.862;2022-12-05T03:47:05;15.40;;;6.67;;
12042;SDS011;6082;49.306;12.862;2022-12-05T03:49:37;18.63;;;7.47;;
12042;SDS011;6082;49.306;12.862;2022-12-05T03:52:07;15.43;;;7.57;;
12042;SDS011;6082;49.306;12.862;2022-12-05T03:54:36;17.23;;;7.73;;
12042;SDS011;6082;49.306;12.862;2022-12-05T03:57:18;15.13;;;6.97;;
12042;SDS011;6082;49.306;12.862;2022-12-05T03:59:51;16.23;;;7.30;;
12042;SDS011;6082;49.306;12.862;2022-12-05T04:02:24;17.80;;;7.67;;
12042;SDS011;6082;49.306;12.862;2022-12-05T04:04:57;18.87;;;7.83;;
12042;SDS011;6082;49.306;12.862;2022-12-05T04:07:26;22.87;;;9.57;;
12042;SDS011;6082;49.306;12.862;2022-12-05T04:09:58;19.47;;;8.83;;
12042;SDS011;6082;49.306;12.862;2022-12-05T04:12:26;16.40;;;8.20;;
12042;SDS011;6082;49.306;12.862;2022-12-05T04:14:56;17.73;;;8.23;;
12042;SDS011;6082;49.306;12.862;2022-12-05T04:17:36;18.50;;;7.20;;
12042;SDS011;6082;49.306;12.862;2022-12-05T04:20:12;19.70;;;8.53;;
12042;SDS011;6082;49.306;12.862;2022-12-05T04:22:58;14.10;;;6.67;;
12042;SDS011;6082;49.306;12.862;2022-12-05T04:25:25;17.70;;;7.83;;
12042;SDS011;6082;49.306;12.862;2022-12-05T04:30:34;15.27;;;7.70;;
12042;SDS011;6082;49.306;12.862;2022-12-05T04:33:14;19.43;;;7.93;;
12042;SDS011;6082;49.306;12.862;2022-12-05T04:38:08;17.13;;;8.30;;
12042;SDS011;6082;49.306;12.862;2022-12-05T04:40:37;15.07;;;7.23;;
12042;SDS011;6082;49.306;12.862;2022-12-05T04:43:05;14.63;;;7.37;;
12042;SDS011;6082;49.306;12.862;2022-12-05T04:45:37;17.20;;;7.73;;
12042;SDS011;6082;49.306;12.862;2022-12-05T04:48:06;18.73;;;8.23;;
12042;SDS011;6082;49.306;12.862;2022-12-05T04:50:35;13.33;;;6.60;;
12042;SDS011;6082;49.306;12.862;2022-12-05T04:53:01;13.57;;;6.90;;
12042;SDS011;6082;49.306;12.862;2022-12-05T04:55:28;14.83;;;7.37;;
12042;SDS011;6082;49.306;12.862;2022-12-05T04:58:06;17.40;;;7.13;;
12042;SDS011;6082;49.306;12.862;2022-12-05T05:00:36;15.43;;;6.03;;
12042;SDS011;6082;49.306;12.862;2022-12-05T05:03:09;12.53;;;6.60;;
12042;SDS011;6082;49.306;12.862;2022-12-05T05:05:36;11.33;;;5.87;;
12042;SDS011;6082;49.306;12.862;2022-12-05T05:08:03;12.33;;;6.27;;
12042;SDS011;6082;49.306;12.862;2022-12-05T05:11:13;11.80;;;4.97;;
12042;SDS011;6082;49.306;12.862;2022-12-05T05:13:19;10.57;;;6.57;;
12042;SDS011;6082;49.306;12.862;2022-12-05T05:15:45;10.50;;;5.27;;
12042;SDS011;6082;49.306;12.862;2022-12-05T05:18:11;13.73;;;5.57;;
12042;SDS011;6082;49.306;12.862;2022-12-05T05:20:37;8.43;;;4.67;;
12042;SDS011;6082;49.306;12.862;2022-12-05T05:23:03;9.10;;;4.10;;
12042;SDS011;6082;49.306;12.862;2022-12-05T05:25:29;7.63;;;4.03;;
12042;SDS011;6082;49.306;12.862;2022-12-05T05:27:55;10.10;;;4.70;;
12042;SDS011;6082;49.306;12.862;2022-12-05T05:30:22;8.80;;;4.30;;
12042;SDS011;6082;49.306;12.862;2022-12-05T05:32:49;9.73;;;5.03;;
12042;SDS011;6082;49.306;12.862;2022-12-05T05:35:15;8.83;;;4.13;;
12042;SDS011;6082;49.306;12.862;2022-12-05T05:37:47;9.90;;;4.40;;
12042;SDS011;6082;49.306;12.862;2022-12-05T05:40:13;8.00;;;4.70;;
12042;SDS011;6082;49.306;12.862;2022-12-05T05:42:43;7.50;;;4.30;;
12042;SDS011;6082;49.306;12.862;2022-12-05T05:45:10;9.70;;;4.60;;
12042;SDS011;6082;49.306;12.862;2022-12-05T05:47:36;8.23;;;4.53;;
12042;SDS011;6082;49.306;12.862;2022-12-05T05:50:03;7.33;;;4.30;;
12042;SDS011;6082;49.306;12.862;2022-12-05T05:52:31;8.47;;;4.27;;
12042;SDS011;6082;49.306;12.862;2022-12-05T05:54:57;7.60;;;4.23;;
12042;SDS011;6082;49.306;12.862;2022-12-05T05:57:23;9.97;;;3.63;;
12042;SDS011;6082;49.306;12.862;2022-12-05T05:59:49;10.37;;;3.67;;
12042;SDS011;6082;49.306;12.862;2022-12-05T06:02:15;6.90;;;3.43;;
12042;SDS011;6082;49.306;12.862;2022-12-05T06:04:42;5.67;;;3.83;;
12042;SDS011;6082;49.306;12.862;2022-12-05T06:07:08;7.10;;;3.93;;
12042;SDS011;6082;49.306;12.862;2022-12-05T06:09:34;6.53;;;3.37;;
12042;SDS011;6082;49.306;12.862;2022-12-05T06:12:00;6.37;;;3.50;;
12042;SDS011;6082;49.306;12.862;2022-12-05T06:14:26;6.30;;;3.70;;
12042;SDS011;6082;49.306;12.862;2022-12-05T06:16:52;7.23;;;3.93;;
12042;SDS011;6082;49.306;12.862;2022-12-05T06:19:18;6.57;;;3.57;;
12042;SDS011;6082;49.306;12.862;2022-12-05T06:21:44;9.00;;;4.20;;
12042;SDS011;6082;49.306;12.862;2022-12-05T06:24:10;6.97;;;3.70;;
12042;SDS011;6082;49.306;12.862;2022-12-05T06:26:36;6.17;;;3.70;;
12042;SDS011;6082;49.306;12.862;2022-12-05T06:29:02;9.73;;;4.40;;
12042;SDS011;6082;49.306;12.862;2022-12-05T06:31:28;6.20;;;3.67;;
12042;SDS011;6082;49.306;12.862;2022-12-05T06:34:01;5.37;;;3.47;;
12042;SDS011;6082;49.306;12.862;2022-12-05T06:36:28;8.27;;;4.17;;
12042;SDS011;6082;49.306;12.862;2022-12-05T06:38:57;9.83;;;4.43;;
12042;SDS011;6082;49.306;12.862;2022-12-05T06:41:23;6.87;;;3.80;;
12042;SDS011;6082;49.306;12.862;2022-12-05T06:43:57;9.93;;;4.77;;
12042;SDS011;6082;49.306;12.862;2022-12-05T06:46:23;9.67;;;4.03;;
12042;SDS011;6082;49.306;12.862;2022-12-05T06:48:53;8.10;;;4.60;;
12042;SDS011;6082;49.306;12.862;2022-12-05T06:51:19;5.13;;;3.50;;
12042;SDS011;6082;49.306;12.862;2022-12-05T06:53:45;8.50;;;4.33;;
12042;SDS011;6082;49.306;12.862;2022-12-05T06:56:13;11.33;;;4.50;;
12042;SDS011;6082;49.306;12.862;2022-12-05T06:58:40;8.67;;;4.33;;
12042;SDS011;6082;49.306;12.862;2022-12-05T07:01:10;11.87;;;5.47;;
12042;SDS011;6082;49.306;12.862;2022-12-05T07:03:55;7.50;;;3.93;;
12042;SDS011;6082;49.306;12.862;2022-12-05T07:06:21;9.30;;;4.97;;
12042;SDS011;6082;49.306;12.862;2022-12-05T07:08:47;9.80;;;4.20;;
12042;SDS011;6082;49.306;12.862;2022-12-05T07:11:13;9.83;;;5.40;;
12042;SDS011;6082;49.306;12.862;2022-12-05T07:13:39;9.73;;;5.87;;
12042;SDS011;6082;49.306;12.862;2022-12-05T07:16:06;8.77;;;5.23;;
12042;SDS011;6082;49.306;12.862;2022-12-05T07:18:33;10.50;;;5.83;;
12042;SDS011;6082;49.306;12.862;2022-12-05T07:21:01;12.73;;;6.17;;
12042;SDS011;6082;49.306;12.862;2022-12-05T07:23:27;14.23;;;6.67;;
12042;SDS011;6082;49.306;12.862;2022-12-05T07:25:53;11.53;;;6.50;;
12042;SDS011;6082;49.306;12.862;2022-12-05T07:28:19;9.07;;;5.07;;
12042;SDS011;6082;49.306;12.862;2022-12-05T07:30:45;10.10;;;6.00;;
12042;SDS011;6082;49.306;12.862;2022-12-05T07:33:11;10.60;;;5.97;;
12042;SDS011;6082;49.306;12.862;2022-12-05T07:35:37;10.27;;;5.17;;
12042;SDS011;6082;49.306;12.862;2022-12-05T07:38:03;9.13;;;5.27;;
12042;SDS011;6082;49.306;12.862;2022-12-05T07:40:30;9.03;;;4.87;;
12042;SDS011;6082;49.306;12.862;2022-12-05T07:42:56;10.03;;;4.97;;
12042;SDS011;6082;49.306;12.862;2022-12-05T07:45:22;9.03;;;5.30;;
12042;SDS011;6082;49.306;12.862;2022-12-05T07:47:48;12.47;;;4.43;;
12042;SDS011;6082;49.306;12.862;2022-12-05T07:50:14;6.50;;;4.33;;
12042;SDS011;6082;49.306;12.862;2022-12-05T07:52:40;7.73;;;4.70;;
12042;SDS011;6082;49.306;12.862;2022-12-05T07:55:06;9.40;;;4.20;;
12042;SDS011;6082;49.306;12.862;2022-12-05T07:57:33;7.73;;;4.67;;
12042;SDS011;6082;49.306;12.862;2022-12-05T07:59:59;33.87;;;16.07;;
12042;SDS011;6082;49.306;12.862;2022-12-05T08:02:25;18.87;;;9.27;;
12042;SDS011;6082;49.306;12.862;2022-12-05T08:04:51;8.73;;;5.33;;
12042;SDS011;6082;49.306;12.862;2022-12-05T08:07:17;10.17;;;5.10;;
12042;SDS011;6082;49.306;12.862;2022-12-05T08:09:43;14.13;;;6.27;;
12042;SDS011;6082;49.306;12.862;2022-12-05T08:12:09;10.90;;;5.93;;
12042;SDS011;6082;49.306;12.862;2022-12-05T08:14:35;13.43;;;5.83;;
12042;SDS011;6082;49.306;12.862;2022-12-05T08:17:01;8.30;;;4.67;;
12042;SDS011;6082;49.306;12.862;2022-12-05T08:19:31;11.60;;;6.30;;
12042;SDS011;6082;49.306;12.862;2022-12-05T08:21:57;12.10;;;6.20;;
12042;SDS011;6082;49.306;12.862;2022-12-05T08:24:23;7.43;;;5.03;;
12042;SDS011;6082;49.306;12.862;2022-12-05T08:26:49;12.70;;;5.97;;
12042;SDS011;6082;49.306;12.862;2022-12-05T08:29:18;9.50;;;4.73;;
12042;SDS011;6082;49.306;12.862;2022-12-05T08:31:46;11.57;;;6.17;;
12042;SDS011;6082;49.306;12.862;2022-12-05T08:34:12;9.77;;;5.50;;
12042;SDS011;6082;49.306;12.862;2022-12-05T08:36:39;9.40;;;4.77;;
12042;SDS011;6082;49.306;12.862;2022-12-05T08:39:07;9.73;;;5.30;;
12042;SDS011;6082;49.306;12.862;2022-12-05T08:41:35;8.90;;;4.90;;
12042;SDS011;6082;49.306;12.862;2022-12-05T08:44:02;11.13;;;6.37;;
12042;SDS011;6082;49.306;12.862;2022-12-05T08:46:30;12.67;;;5.23;;
12042;SDS011;6082;49.306;12.862;2022-12-05T08:48:56;11.00;;;5.67;;
12042;SDS011;6082;49.306;12.862;2022-12-05T08:51:22;9.87;;;5.37;;
12042;SDS011;6082;49.306;12.862;2022-12-05T08:53:48;11.87;;;5.30;;
12042;SDS011;6082;49.306;12.862;2022-12-05T08:56:14;9.80;;;5.90;;
12042;SDS011;6082;49.306;12.862;2022-12-05T08:58:40;11.37;;;5.73;;
12042;SDS011;6082;49.306;12.862;2022-12-05T09:01:08;9.10;;;4.87;;
12042;SDS011;6082;49.306;12.862;2022-12-05T09:03:34;16.17;;;6.27;;
12042;SDS011;6082;49.306;12.862;2022-12-05T09:06:04;11.23;;;5.60;;
12042;SDS011;6082;49.306;12.862;2022-12-05T09:08:31;11.07;;;5.27;;
12042;SDS011;6082;49.306;12.862;2022-12-05T09:10:57;12.70;;;5.73;;
12042;SDS011;6082;49.306;12.862;2022-12-05T09:13:23;10.80;;;5.47;;
12042;SDS011;6082;49.306;12.862;2022-12-05T09:15:49;9.77;;;5.23;;
12042;SDS011;6082;49.306;12.862;2022-12-05T09:18:15;14.20;;;5.80;;
12042;SDS011;6082;49.306;12.862;2022-12-05T09:20:41;9.53;;;5.17;;
12042;SDS011;6082;49.306;12.862;2022-12-05T09:23:08;10.00;;;5.40;;
12042;SDS011;6082;49.306;12.862;2022-12-05T09:25:34;10.73;;;5.60;;
12042;SDS011;6082;49.306;12.862;2022-12-05T09:28:00;11.30;;;5.53;;
12042;SDS011;6082;49.306;12.862;2022-12-05T09:30:26;15.20;;;5.50;;
12042;SDS011;6082;49.306;12.862;2022-12-05T09:32:52;10.67;;;5.23;;
12042;SDS011;6082;49.306;12.862;2022-12-05T09:35:18;14.97;;;6.43;;
12042;SDS011;6082;49.306;12.862;2022-12-05T09:37:44;8.20;;;5.20;;
12042;SDS011;6082;49.306;12.862;2022-12-05T09:40:14;11.23;;;5.37;;
12042;SDS011;6082;49.306;12.862;2022-12-05T09:42:53;12.23;;;5.03;;
12042;SDS011;6082;49.306;12.862;2022-12-05T09:45:28;11.90;;;5.67;;
12042;SDS011;6082;49.306;12.862;2022-12-05T10:04:02;13.20;;;5.87;;
12042;SDS011;6082;49.306;12.862;2022-12-05T10:06:36;13.83;;;6.23;;
12042;SDS011;6082;49.306;12.862;2022-12-05T10:11:33;15.20;;;7.17;;
12042;SDS011;6082;49.306;12.862;2022-12-05T10:14:07;14.70;;;6.27;;
12042;SDS011;6082;49.306;12.862;2022-12-05T10:19:26;12.60;;;5.53;;
12042;SDS011;6082;49.306;12.862;2022-12-05T10:24:32;11.43;;;5.87;;
12042;SDS011;6082;49.306;12.862;2022-12-05T10:27:05;12.57;;;7.37;;
12042;SDS011;6082;49.306;12.862;2022-12-05T10:29:34;14.67;;;5.63;;
12042;SDS011;6082;49.306;12.862;2022-12-05T10:32:03;10.77;;;5.63;;
12042;SDS011;6082;49.306;12.862;2022-12-05T10:34:37;17.50;;;7.73;;
12042;SDS011;6082;49.306;12.862;2022-12-05T10:39:33;21.93;;;10.93;;
12042;SDS011;6082;49.306;12.862;2022-12-05T10:41:59;20.53;;;10.57;;
12042;SDS011;6082;49.306;12.862;2022-12-05T10:44:25;28.87;;;11.47;;
12042;SDS011;6082;49.306;12.862;2022-12-05T10:46:51;23.97;;;12.27;;
12042;SDS011;6082;49.306;12.862;2022-12-05T10:49:17;16.67;;;7.87;;
12042;SDS011;6082;49.306;12.862;2022-12-05T10:51:44;14.47;;;6.03;;
12042;SDS011;6082;49.306;12.862;2022-12-05T10:54:16;14.80;;;5.67;;
12042;SDS011;6082;49.306;12.862;2022-12-05T10:56:46;11.17;;;5.80;;
12042;SDS011;6082;49.306;12.862;2022-12-05T10:59:17;8.53;;;5.30;;
12042;SDS011;6082;49.306;12.862;2022-12-05T11:01:57;11.77;;;5.17;;
12042;SDS011;6082;49.306;12.862;2022-12-05T11:04:40;11.97;;;5.20;;
12042;SDS011;6082;49.306;12.862;2022-12-05T11:07:09;9.17;;;4.73;;
12042;SDS011;6082;49.306;12.862;2022-12-05T11:09:46;11.17;;;5.17;;
12042;SDS011;6082;49.306;12.862;2022-12-05T11:12:19;9.70;;;4.63;;
12042;SDS011;6082;49.306;12.862;2022-12-05T11:14:57;11.73;;;5.60;;
12042;SDS011;6082;49.306;12.862;2022-12-05T11:17:25;11.67;;;5.43;;
12042;SDS011;6082;49.306;12.862;2022-12-05T11:19:52;13.90;;;6.50;;
12042;SDS011;6082;49.306;12.862;2022-12-05T11:22:18;10.17;;;5.27;;
12042;SDS011;6082;49.306;12.862;2022-12-05T11:24:44;13.00;;;5.57;;
12042;SDS011;6082;49.306;12.862;2022-12-05T11:29:43;12.57;;;5.37;;
12042;SDS011;6082;49.306;12.862;2022-12-05T11:32:23;12.20;;;6.03;;
12042;SDS011;6082;49.306;12.862;2022-12-05T11:37:21;11.27;;;5.80;;
12042;SDS011;6082;49.306;12.862;2022-12-05T11:39:47;12.57;;;5.57;;
12042;SDS011;6082;49.306;12.862;2022-12-05T11:42:22;10.90;;;5.47;;
12042;SDS011;6082;49.306;12.862;2022-12-05T11:47:27;10.50;;;5.47;;
12042;SDS011;6082;49.306;12.862;2022-12-05T11:52:41;8.17;;;5.30;;
12042;SDS011;6082;49.306;12.862;2022-12-05T11:55:15;8.40;;;5.27;;
12042;SDS011;6082;49.306;12.862;2022-12-05T12:05:59;10.73;;;5.63;;
12042;SDS011;6082;49.306;12.862;2022-12-05T12:09:16;12.07;;;6.03;;
12042;SDS011;6082;49.306;12.862;2022-12-05T12:27:18;9.87;;;5.83;;
12042;SDS011;6082;49.306;12.862;2022-12-05T12:29:54;9.30;;;4.97;;
12042;SDS011;6082;49.306;12.862;2022-12-05T12:47:54;13.63;;;7.23;;
12042;SDS011;6082;49.306;12.862;2022-12-05T12:50:25;8.90;;;5.13;;
12042;SDS011;6082;49.306;12.862;2022-12-05T12:58:26;12.10;;;5.43;;
12042;SDS011;6082;49.306;12.862;2022-12-05T13:03:29;8.80;;;4.83;;
12042;SDS011;6082;49.306;12.862;2022-12-05T13:06:01;8.83;;;5.23;;
12042;SDS011;6082;49.306;12.862;2022-12-05T13:10:59;9.83;;;5.57;;
12042;SDS011;6082;49.306;12.862;2022-12-05T13:13:32;14.57;;;6.47;;
12042;SDS011;6082;49.306;12.862;2022-12-05T13:16:00;12.63;;;7.00;;
12042;SDS011;6082;49.306;12.862;2022-12-05T13:18:27;11.13;;;6.20;;
12042;SDS011;6082;49.306;12.862;2022-12-05T13:20:53;14.67;;;6.53;;
12042;SDS011;6082;49.306;12.862;2022-12-05T13:23:21;12.27;;;5.97;;
12042;SDS011;6082;49.306;12.862;2022-12-05T13:25:49;11.10;;;6.17;;
12042;SDS011;6082;49.306;12.862;2022-12-05T13:30:48;14.00;;;6.70;;
12042;SDS011;6082;49.306;12.862;2022-12-05T13:33:32;14.53;;;7.70;;
12042;SDS011;6082;49.306;12.862;2022-12-05T13:36:03;13.87;;;7.77;;
12042;SDS011;6082;49.306;12.862;2022-12-05T13:38:53;9.97;;;6.00;;
12042;SDS011;6082;49.306;12.862;2022-12-05T13:41:40;8.43;;;4.93;;
12042;SDS011;6082;49.306;12.862;2022-12-05T13:44:45;15.63;;;7.03;;
12042;SDS011;6082;49.306;12.862;2022-12-05T13:49:54;9.87;;;5.67;;
12042;SDS011;6082;49.306;12.862;2022-12-05T13:52:22;13.50;;;5.80;;
12042;SDS011;6082;49.306;12.862;2022-12-05T13:55:33;11.73;;;6.13;;
12042;SDS011;6082;49.306;12.862;2022-12-05T14:07:40;10.70;;;6.33;;
12042;SDS011;6082;49.306;12.862;2022-12-05T14:10:06;12.60;;;5.63;;
12042;SDS011;6082;49.306;12.862;2022-12-05T14:12:49;12.07;;;5.97;;
12042;SDS011;6082;49.306;12.862;2022-12-05T14:15:23;13.30;;;6.63;;
12042;SDS011;6082;49.306;12.862;2022-12-05T14:17:50;14.43;;;6.90;;
12042;SDS011;6082;49.306;12.862;2022-12-05T14:32:55;17.83;;;9.20;;
12042;SDS011;6082;49.306;12.862;2022-12-05T14:35:39;14.13;;;7.70;;
12042;SDS011;6082;49.306;12.862;2022-12-05T14:38:06;14.33;;;7.13;;
12042;SDS011;6082;49.306;12.862;2022-12-05T14:40:43;11.87;;;6.00;;
12042;SDS011;6082;49.306;12.862;2022-12-05T14:43:30;11.23;;;5.13;;
12042;SDS011;6082;49.306;12.862;2022-12-05T14:45:58;8.73;;;4.57;;
12042;SDS011;6082;49.306;12.862;2022-12-05T14:48:27;9.30;;;5.20;;
12042;SDS011;6082;49.306;12.862;2022-12-05T14:50:54;11.83;;;5.80;;
12042;SDS011;6082;49.306;12.862;2022-12-05T14:53:26;10.43;;;5.23;;
12042;SDS011;6082;49.306;12.862;2022-12-05T14:56:02;8.93;;;4.90;;
12042;SDS011;6082;49.306;12.862;2022-12-05T15:01:25;10.17;;;5.60;;
12042;SDS011;6082;49.306;12.862;2022-12-05T15:06:21;11.40;;;6.20;;
12042;SDS011;6082;49.306;12.862;2022-12-05T15:08:50;14.17;;;6.50;;
12042;SDS011;6082;49.306;12.862;2022-12-05T15:11:18;11.80;;;6.20;;
12042;SDS011;6082;49.306;12.862;2022-12-05T15:16:34;16.67;;;10.27;;
12042;SDS011;6082;49.306;12.862;2022-12-05T15:19:05;14.87;;;6.43;;
12042;SDS011;6082;49.306;12.862;2022-12-05T15:21:38;10.33;;;5.30;;
12042;SDS011;6082;49.306;12.862;2022-12-05T15:24:10;9.80;;;4.80;;
12042;SDS011;6082;49.306;12.862;2022-12-05T15:26:40;7.23;;;4.13;;
12042;SDS011;6082;49.306;12.862;2022-12-05T15:29:15;8.93;;;5.53;;
12042;SDS011;6082;49.306;12.862;2022-12-05T15:36:42;14.30;;;7.07;;
12042;SDS011;6082;49.306;12.862;2022-12-05T15:39:22;11.50;;;5.90;;
12042;SDS011;6082;49.306;12.862;2022-12-05T15:41:53;9.60;;;5.30;;
12042;SDS011;6082;49.306;12.862;2022-12-05T15:44:20;11.93;;;5.97;;
12042;SDS011;6082;49.306;12.862;2022-12-05T15:46:53;10.43;;;5.33;;
12042;SDS011;6082;49.306;12.862;2022-12-05T15:49:23;9.13;;;5.23;;
12042;SDS011;6082;49.306;12.862;2022-12-05T15:51:51;11.60;;;6.17;;
12042;SDS011;6082;49.306;12.862;2022-12-05T15:54:19;15.30;;;8.27;;
12042;SDS011;6082;49.306;12.862;2022-12-05T15:56:49;12.13;;;7.27;;
12042;SDS011;6082;49.306;12.862;2022-12-05T15:59:21;17.43;;;7.20;;
12042;SDS011;6082;49.306;12.862;2022-12-05T16:01:51;10.63;;;6.17;;
12042;SDS011;6082;49.306;12.862;2022-12-05T16:04:23;10.90;;;6.60;;
12042;SDS011;6082;49.306;12.862;2022-12-05T16:06:53;8.97;;;5.93;;
12042;SDS011;6082;49.306;12.862;2022-12-05T16:09:23;8.23;;;5.33;;
12042;SDS011;6082;49.306;12.862;2022-12-05T16:14:20;9.57;;;5.70;;
12042;SDS011;6082;49.306;12.862;2022-12-05T16:16:47;9.70;;;4.83;;
12042;SDS011;6082;49.306;12.862;2022-12-05T16:19:14;7.53;;;4.83;;
12042;SDS011;6082;49.306;12.862;2022-12-05T16:21:42;11.07;;;5.27;;
12042;SDS011;6082;49.306;12.862;2022-12-05T16:24:21;10.13;;;6.03;;
12042;SDS011;6082;49.306;12.862;2022-12-05T16:27:02;10.97;;;5.03;;
12042;SDS011;6082;49.306;12.862;2022-12-05T16:29:31;7.80;;;5.20;;
12042;SDS011;6082;49.306;12.862;2022-12-05T16:31:58;11.03;;;6.23;;
12042;SDS011;6082;49.306;12.862;2022-12-05T16:34:25;15.87;;;7.13;;
12042;SDS011;6082;49.306;12.862;2022-12-05T16:36:58;11.50;;;6.90;;
12042;SDS011;6082;49.306;12.862;2022-12-05T16:39:24;9.67;;;5.23;;
12042;SDS011;6082;49.306;12.862;2022-12-05T16:41:52;13.20;;;6.60;;
12042;SDS011;6082;49.306;12.862;2022-12-05T16:46:57;17.77;;;8.53;;
12042;SDS011;6082;49.306;12.862;2022-12-05T16:52:30;10.40;;;5.80;;
12042;SDS011;6082;49.306;12.862;2022-12-05T16:54:49;13.37;;;6.27;;
12042;SDS011;6082;49.306;12.862;2022-12-05T16:57:16;13.07;;;5.37;;
12042;SDS011;6082;49.306;12.862;2022-12-05T16:59:42;14.63;;;7.63;;
12042;SDS011;6082;49.306;12.862;2022-12-05T17:02:13;15.27;;;6.77;;
12042;SDS011;6082;49.306;12.862;2022-12-05T17:04:40;14.10;;;6.77;;
12042;SDS011;6082;49.306;12.862;2022-12-05T17:07:07;12.00;;;6.10;;
12042;SDS011;6082;49.306;12.862;2022-12-05T17:09:33;9.87;;;5.33;;
12042;SDS011;6082;49.306;12.862;2022-12-05T17:12:13;12.47;;;5.87;;
12042;SDS011;6082;49.306;12.862;2022-12-05T17:14:40;11.93;;;5.60;;
12042;SDS011;6082;49.306;12.862;2022-12-05T17:17:11;10.73;;;5.57;;
12042;SDS011;6082;49.306;12.862;2022-12-05T17:19:38;12.87;;;6.07;;
12042;SDS011;6082;49.306;12.862;2022-12-05T17:22:04;10.03;;;6.07;;
12042;SDS011;6082;49.306;12.862;2022-12-05T17:24:30;17.13;;;9.03;;
12042;SDS011;6082;49.306;12.862;2022-12-05T17:26:56;17.70;;;8.63;;
12042;SDS011;6082;49.306;12.862;2022-12-05T17:29:23;15.50;;;9.20;;
12042;SDS011;6082;49.306;12.862;2022-12-05T17:31:52;15.03;;;8.13;;
12042;SDS011;6082;49.306;12.862;2022-12-05T17:34:18;27.30;;;15.50;;